Time;durP1;ratioP1;P1;durP2;ratioP2;P2;SDS_P1;SDS_P2;PMS_P1;PMS_P2;Temp;Humidity;BMP_temperature;BMP_pressure;BME280_temperature;BME280_humidity;BME280_pressure;Samples;Min_cycle;Max_cycle;Signal;HPM_P1;HPM_P2
2021/03/23 00:00:13;;;;;;;3.95;2.28;;;;;;;;;;5115861;28;20078;-81
2021/03/23 00:02:39;;;;;;;4.30;1.70;;;;;;;;;;5095704;28;20040;-81
2021/03/23 00:05:08;;;;;;;7.95;2.05;;;;;;;;;;5095132;28;20347;-80
2021/03/23 00:07:34;;;;;;;4.68;1.77;;;;;;;;;;5111575;28;20075;-81
2021/03/23 00:10:07;;;;;;;5.93;1.83;;;;;;;;;;5096752;28;20044;-80
2021/03/23 00:12:34;;;;;;;5.40;1.85;;;;;;;;;;5095733;28;20095;-81
2021/03/23 00:15:09;;;;;;;2.90;1.73;;;;;;;;;;5096009;28;20066;-80
2021/03/23 00:17:35;;;;;;;6.13;2.20;;;;;;;;;;5105012;28;20060;-80
2021/03/23 00:20:07;;;;;;;4.43;2.10;;;;;;;;;;5128846;28;20059;-80
2021/03/23 00:22:37;;;;;;;3.50;1.92;;;;;;;;;;5128067;28;20066;-81
2021/03/23 00:25:10;;;;;;;4.57;2.00;;;;;;;;;;5120952;28;20071;-81
2021/03/23 00:27:37;;;;;;;4.60;1.92;;;;;;;;;;5118197;28;20420;-81
2021/03/23 00:30:07;;;;;;;11.95;2.53;;;;;;;;;;5117480;28;20047;-81
2021/03/23 00:32:33;;;;;;;4.82;1.85;;;;;;;;;;5100357;28;20362;-81
2021/03/23 00:35:01;;;;;;;3.28;2.08;;;;;;;;;;5099821;28;20044;-81
2021/03/23 00:37:28;;;;;;;5.18;1.80;;;;;;;;;;5099038;28;20447;-81
2021/03/23 00:39:58;;;;;;;6.38;1.92;;;;;;;;;;5098789;28;20472;-81
2021/03/23 00:42:25;;;;;;;3.10;1.95;;;;;;;;;;5098690;28;20380;-80
2021/03/23 00:44:58;;;;;;;6.20;1.98;;;;;;;;;;5098324;28;20076;-80
2021/03/23 00:47:27;;;;;;;4.40;2.05;;;;;;;;;;5098538;28;20058;-81
2021/03/23 00:49:56;;;;;;;5.93;2.20;;;;;;;;;;5097582;28;20139;-80
2021/03/23 00:52:23;;;;;;;4.45;1.98;;;;;;;;;;5098004;28;20078;-80
2021/03/23 00:54:50;;;;;;;7.70;2.72;;;;;;;;;;5098170;28;20048;-81
2021/03/23 00:57:16;;;;;;;7.40;2.67;;;;;;;;;;5098128;28;20044;-81
2021/03/23 00:59:45;;;;;;;6.10;2.55;;;;;;;;;;5099260;28;20487;-81
2021/03/23 01:02:14;;;;;;;8.15;2.50;;;;;;;;;;5099202;28;20257;-81
2021/03/23 01:04:41;;;;;;;5.63;2.88;;;;;;;;;;5098312;28;20063;-81
2021/03/23 01:07:09;;;;;;;5.88;2.72;;;;;;;;;;5099559;28;20088;-81
2021/03/23 01:09:39;;;;;;;7.15;2.90;;;;;;;;;;5099118;28;20154;-81
2021/03/23 01:12:09;;;;;;;8.07;3.33;;;;;;;;;;5098475;28;20114;-81
2021/03/23 01:14:36;;;;;;;7.72;3.30;;;;;;;;;;5099949;28;20051;-81
2021/03/23 01:17:02;;;;;;;6.07;3.10;;;;;;;;;;5116058;28;20062;-83
2021/03/23 01:19:29;;;;;;;7.97;3.55;;;;;;;;;;5100841;28;20158;-81
2021/03/23 01:21:55;;;;;;;5.07;3.13;;;;;;;;;;5101638;28;20383;-81
2021/03/23 01:24:35;;;;;;;8.30;4.03;;;;;;;;;;5100846;28;20100;-81
2021/03/23 01:27:02;;;;;;;8.77;3.53;;;;;;;;;;5100051;28;20044;-81
2021/03/23 01:29:29;;;;;;;9.43;3.95;;;;;;;;;;5114717;28;20048;-81
2021/03/23 01:31:56;;;;;;;6.78;4.05;;;;;;;;;;5097988;28;20083;-81
2021/03/23 01:34:41;;;;;;;5.70;3.35;;;;;;;;;;5099491;28;20060;-81
2021/03/23 01:37:08;;;;;;;6.07;3.67;;;;;;;;;;5099601;28;20062;-81
2021/03/23 01:39:37;;;;;;;9.18;3.53;;;;;;;;;;5100130;28;20155;-81
2021/03/23 01:42:04;;;;;;;7.38;3.90;;;;;;;;;;5098754;28;20166;-81
2021/03/23 01:44:32;;;;;;;6.53;3.67;;;;;;;;;;5097916;28;20063;-81
2021/03/23 01:46:58;;;;;;;7.28;3.42;;;;;;;;;;5100041;28;20095;-81
2021/03/23 01:49:24;;;;;;;6.07;3.22;;;;;;;;;;5099928;28;20101;-81
2021/03/23 01:52:02;;;;;;;5.43;3.42;;;;;;;;;;5099871;28;20056;-81
2021/03/23 01:54:34;;;;;;;9.52;3.78;;;;;;;;;;5105432;28;20052;-81
2021/03/23 01:57:06;;;;;;;11.90;3.40;;;;;;;;;;5128448;28;20058;-81
2021/03/23 01:59:35;;;;;;;7.70;3.83;;;;;;;;;;5125645;28;20116;-81
2021/03/23 02:02:02;;;;;;;7.80;4.03;;;;;;;;;;5101001;28;20056;-81
2021/03/23 02:04:32;;;;;;;10.48;3.78;;;;;;;;;;5124478;28;20074;-80
2021/03/23 02:06:59;;;;;;;11.73;3.53;;;;;;;;;;5112629;28;20036;-80
2021/03/23 02:09:33;;;;;;;7.00;4.07;;;;;;;;;;5111203;28;20115;-81
2021/03/23 02:12:00;;;;;;;8.27;3.75;;;;;;;;;;5103708;28;20190;-81
2021/03/23 02:14:28;;;;;;;12.80;4.28;;;;;;;;;;5100011;28;20344;-81
2021/03/23 02:16:54;;;;;;;8.70;3.75;;;;;;;;;;5099181;28;20048;-81
2021/03/23 02:19:22;;;;;;;7.40;3.72;;;;;;;;;;5097387;28;20044;-81
2021/03/23 02:21:52;;;;;;;11.73;3.90;;;;;;;;;;5099603;28;20333;-81
2021/03/23 02:24:19;;;;;;;16.52;4.18;;;;;;;;;;5097944;28;20046;-81
2021/03/23 02:26:47;;;;;;;9.77;4.30;;;;;;;;;;5100018;28;20047;-81
2021/03/23 02:29:15;;;;;;;6.80;3.78;;;;;;;;;;5114941;28;20074;-81
2021/03/23 02:31:43;;;;;;;9.07;4.20;;;;;;;;;;5115444;28;20470;-81
2021/03/23 02:34:11;;;;;;;7.82;3.95;;;;;;;;;;5099205;28;20063;-81
2021/03/23 02:36:38;;;;;;;8.02;4.05;;;;;;;;;;5099654;28;20120;-81
2021/03/23 02:39:05;;;;;;;12.32;4.50;;;;;;;;;;5098807;28;20396;-81
2021/03/23 02:41:32;;;;;;;7.13;4.22;;;;;;;;;;5096770;28;20477;-81
2021/03/23 02:44:04;;;;;;;7.90;3.88;;;;;;;;;;5097607;28;20146;-81
2021/03/23 02:46:30;;;;;;;8.63;3.95;;;;;;;;;;5097907;28;20048;-81
2021/03/23 02:48:56;;;;;;;9.43;3.35;;;;;;;;;;5118633;28;20180;-81
2021/03/23 02:51:22;;;;;;;6.50;3.47;;;;;;;;;;5105733;28;20044;-81
2021/03/23 02:53:49;;;;;;;10.40;3.58;;;;;;;;;;5105343;28;20055;-81
2021/03/23 02:56:18;;;;;;;8.43;3.92;;;;;;;;;;5104515;28;20404;-81
2021/03/23 02:58:47;;;;;;;6.10;3.72;;;;;;;;;;5103043;28;20052;-81
2021/03/23 03:01:14;;;;;;;5.57;3.45;;;;;;;;;;5101119;28;20059;-81
2021/03/23 03:03:43;;;;;;;13.20;3.70;;;;;;;;;;5099625;28;20067;-81
2021/03/23 03:06:10;;;;;;;6.75;3.25;;;;;;;;;;5098100;28;20113;-81
2021/03/23 03:08:49;;;;;;;9.18;3.40;;;;;;;;;;5095647;28;20063;-81
2021/03/23 03:11:15;;;;;;;7.65;3.33;;;;;;;;;;5095679;28;20128;-81
2021/03/23 03:13:44;;;;;;;5.78;3.22;;;;;;;;;;5112953;28;20128;-81
2021/03/23 03:16:10;;;;;;;6.00;3.20;;;;;;;;;;5097957;28;20105;-82
2021/03/23 03:18:36;;;;;;;9.95;3.83;;;;;;;;;;5097589;28;20163;-81
2021/03/23 03:21:03;;;;;;;6.82;3.30;;;;;;;;;;5096371;28;20087;-81
2021/03/23 03:23:29;;;;;;;9.60;3.90;;;;;;;;;;5097277;28;20048;-81
2021/03/23 03:26:04;;;;;;;7.45;2.85;;;;;;;;;;5113506;28;20059;-81
2021/03/23 03:28:34;;;;;;;7.15;2.83;;;;;;;;;;5100342;28;20040;-81
2021/03/23 03:31:00;;;;;;;8.30;3.58;;;;;;;;;;5129410;28;20042;-81
2021/03/23 03:33:26;;;;;;;11.20;4.22;;;;;;;;;;5130485;28;20056;-81
2021/03/23 03:35:59;;;;;;;8.75;3.65;;;;;;;;;;5113766;28;20043;-81
2021/03/23 03:38:37;;;;;;;9.07;3.55;;;;;;;;;;5109297;28;20131;-81
2021/03/23 03:41:03;;;;;;;8.10;3.85;;;;;;;;;;5098071;28;20052;-81
2021/03/23 03:43:32;;;;;;;10.52;3.72;;;;;;;;;;5097195;28;20083;-81
2021/03/23 03:46:00;;;;;;;8.45;3.78;;;;;;;;;;5112339;28;20058;-81
2021/03/23 03:48:27;;;;;;;8.95;3.67;;;;;;;;;;5095907;28;20048;-81
2021/03/23 03:50:53;;;;;;;10.38;3.58;;;;;;;;;;5112283;28;20070;-81
2021/03/23 03:53:19;;;;;;;7.60;3.22;;;;;;;;;;5097271;28;20117;-81
2021/03/23 03:55:48;;;;;;;7.68;3.88;;;;;;;;;;5117340;28;20121;-81
2021/03/23 03:58:15;;;;;;;7.70;3.33;;;;;;;;;;5099334;28;20063;-81
2021/03/23 04:00:44;;;;;;;7.90;3.55;;;;;;;;;;5116267;28;20454;-81
2021/03/23 04:03:15;;;;;;;8.52;3.95;;;;;;;;;;5100689;28;20317;-81
2021/03/23 04:05:42;;;;;;;9.75;3.80;;;;;;;;;;5119039;28;20039;-81
2021/03/23 04:08:09;;;;;;;8.63;3.67;;;;;;;;;;5120807;28;20069;-81
2021/03/23 04:10:39;;;;;;;11.63;3.83;;;;;;;;;;5120009;28;20059;-81
2021/03/23 04:13:05;;;;;;;7.88;4.18;;;;;;;;;;5120286;28;20043;-81
2021/03/23 04:15:35;;;;;;;11.40;4.03;;;;;;;;;;5119085;28;20058;-81
2021/03/23 04:18:02;;;;;;;10.90;4.05;;;;;;;;;;5119714;27;20051;-81
2021/03/23 04:20:32;;;;;;;5.47;3.70;;;;;;;;;;5119528;28;20052;-81
2021/03/23 04:23:01;;;;;;;6.45;3.60;;;;;;;;;;5119166;28;20059;-81
2021/03/23 04:25:29;;;;;;;6.63;4.47;;;;;;;;;;5119486;28;20066;-81
2021/03/23 04:27:56;;;;;;;7.45;3.80;;;;;;;;;;5125292;28;20223;-81
2021/03/23 04:30:23;;;;;;;6.15;3.70;;;;;;;;;;5134234;28;20047;-81
2021/03/23 04:32:49;;;;;;;8.35;4.00;;;;;;;;;;5133932;27;20078;-81
2021/03/23 04:35:32;;;;;;;6.35;3.85;;;;;;;;;;5125418;27;20359;-82
2021/03/23 04:37:58;;;;;;;9.55;4.25;;;;;;;;;;5121230;27;20047;-81
2021/03/23 04:40:24;;;;;;;9.40;4.22;;;;;;;;;;5118645;28;20078;-81
2021/03/23 04:42:50;;;;;;;13.95;4.18;;;;;;;;;;5120030;28;20048;-82
2021/03/23 04:45:18;;;;;;;8.10;3.95;;;;;;;;;;5118747;28;20055;-81
2021/03/23 04:47:48;;;;;;;8.27;4.10;;;;;;;;;;5117993;28;20087;-81
2021/03/23 04:50:16;;;;;;;10.88;4.65;;;;;;;;;;5116702;28;20056;-81
2021/03/23 04:52:42;;;;;;;7.03;3.85;;;;;;;;;;5116395;28;20194;-81
2021/03/23 04:55:09;;;;;;;9.05;4.47;;;;;;;;;;5118376;28;20442;-80
2021/03/23 04:57:45;;;;;;;6.68;3.60;;;;;;;;;;5122402;28;20073;-80
2021/03/23 05:00:14;;;;;;;9.75;4.85;;;;;;;;;;5130429;28;20148;-80
2021/03/23 05:02:45;;;;;;;8.50;4.10;;;;;;;;;;5120119;28;20047;-80
2021/03/23 05:05:13;;;;;;;10.88;4.75;;;;;;;;;;5115524;28;20048;-80
2021/03/23 05:07:39;;;;;;;7.53;3.45;;;;;;;;;;5116815;28;20108;-81
2021/03/23 05:10:10;;;;;;;9.40;4.57;;;;;;;;;;5119027;27;20207;-81
2021/03/23 05:12:40;;;;;;;6.43;4.13;;;;;;;;;;5115407;28;20144;-81
2021/03/23 05:15:14;;;;;;;11.45;4.70;;;;;;;;;;5115541;28;20142;-82
2021/03/23 05:17:45;;;;;;;10.45;4.57;;;;;;;;;;5117618;28;20169;-82
2021/03/23 05:20:14;;;;;;;13.90;4.60;;;;;;;;;;5119671;27;20117;-81
2021/03/23 05:22:42;;;;;;;11.88;3.97;;;;;;;;;;5130014;28;20130;-82
2021/03/23 05:25:14;;;;;;;13.57;4.53;;;;;;;;;;5134059;27;20044;-82
2021/03/23 05:27:43;;;;;;;12.88;5.43;;;;;;;;;;5132046;28;20044;-81
2021/03/23 05:30:16;;;;;;;8.98;4.65;;;;;;;;;;5133795;28;20062;-81
2021/03/23 05:32:44;;;;;;;7.53;4.60;;;;;;;;;;5131941;28;20197;-81
2021/03/23 05:35:14;;;;;;;9.70;4.50;;;;;;;;;;5129167;28;20041;-81
2021/03/23 05:37:48;;;;;;;10.65;4.95;;;;;;;;;;5129784;28;20279;-81
2021/03/23 05:40:32;;;;;;;11.68;4.55;;;;;;;;;;5130127;28;20044;-81
2021/03/23 05:43:17;;;;;;;11.68;5.07;;;;;;;;;;5126739;28;20138;-81
2021/03/23 05:45:45;;;;;;;11.43;4.07;;;;;;;;;;5126885;28;20054;-81
2021/03/23 05:48:23;;;;;;;12.32;4.47;;;;;;;;;;5120210;28;20435;-80
2021/03/23 05:51:15;;;;;;;8.05;3.85;;;;;;;;;;5114539;28;20169;-81
2021/03/23 05:53:48;;;;;;;12.48;4.30;;;;;;;;;;5115713;28;20047;-81
2021/03/23 05:56:25;;;;;;;9.25;4.55;;;;;;;;;;5114303;28;20112;-81
2021/03/23 05:58:58;;;;;;;8.35;4.22;;;;;;;;;;5113044;28;20048;-81
2021/03/23 06:01:29;;;;;;;16.67;4.25;;;;;;;;;;5113741;28;20135;-81
2021/03/23 06:04:08;;;;;;;9.93;4.18;;;;;;;;;;5114116;28;20053;-81
2021/03/23 06:06:40;;;;;;;10.45;4.60;;;;;;;;;;5111945;28;20104;-81
2021/03/23 06:09:12;;;;;;;7.65;3.67;;;;;;;;;;5107585;28;20055;-81
2021/03/23 06:11:44;;;;;;;7.78;4.30;;;;;;;;;;5112620;28;20150;-82
2021/03/23 06:14:23;;;;;;;10.52;4.43;;;;;;;;;;5113324;28;20135;-82
2021/03/23 06:17:07;;;;;;;9.30;4.43;;;;;;;;;;5112676;27;20240;-82
2021/03/23 06:19:55;;;;;;;10.43;4.63;;;;;;;;;;5111673;28;20059;-81
2021/03/23 06:22:28;;;;;;;8.82;4.68;;;;;;;;;;5111321;28;20328;-81
2021/03/23 06:25:01;;;;;;;11.93;4.50;;;;;;;;;;5112547;28;20036;-81
2021/03/23 06:27:34;;;;;;;7.35;4.32;;;;;;;;;;5110021;28;20175;-81
2021/03/23 06:30:22;;;;;;;11.68;4.65;;;;;;;;;;5091748;28;20044;-81
2021/03/23 06:32:52;;;;;;;10.80;4.10;;;;;;;;;;5093745;28;20114;-81
2021/03/23 06:35:26;;;;;;;8.30;3.92;;;;;;;;;;5091177;28;20331;-81
2021/03/23 06:37:52;;;;;;;10.77;4.00;;;;;;;;;;5091706;28;20048;-81
2021/03/23 06:40:33;;;;;;;9.95;4.80;;;;;;;;;;5098602;28;20051;-80
2021/03/23 06:43:16;;;;;;;10.70;4.85;;;;;;;;;;5105839;27;20043;-82
2021/03/23 06:45:43;;;;;;;11.48;5.15;;;;;;;;;;5110195;27;20110;-81
2021/03/23 06:48:19;;;;;;;10.82;4.47;;;;;;;;;;5103082;28;20086;-80
2021/03/23 06:50:48;;;;;;;10.65;4.93;;;;;;;;;;5107803;28;20134;-81
2021/03/23 06:53:25;;;;;;;13.80;4.65;;;;;;;;;;5107686;28;20279;-81
2021/03/23 06:55:51;;;;;;;16.05;4.45;;;;;;;;;;5108453;28;20051;-82
2021/03/23 06:58:34;;;;;;;11.18;4.95;;;;;;;;;;5111248;28;20054;-81
2021/03/23 07:01:09;;;;;;;13.02;5.20;;;;;;;;;;5108304;28;20070;-81
2021/03/23 07:03:38;;;;;;;11.43;4.93;;;;;;;;;;5107580;28;20052;-81
2021/03/23 07:06:18;;;;;;;10.57;4.43;;;;;;;;;;5089317;28;20217;-80
2021/03/23 07:09:19;;;;;;;10.27;4.57;;;;;;;;;;5106547;28;20447;-80
2021/03/23 07:12:00;;;;;;;10.23;5.10;;;;;;;;;;5141629;27;20293;-80
2021/03/23 07:14:31;;;;;;;12.18;4.78;;;;;;;;;;5101102;28;20043;-81
2021/03/23 07:17:01;;;;;;;7.38;4.70;;;;;;;;;;5108279;28;20048;-80
2021/03/23 07:19:28;;;;;;;9.38;4.80;;;;;;;;;;5107441;28;20062;-82
2021/03/23 07:22:01;;;;;;;12.50;5.70;;;;;;;;;;5110660;28;20035;-81
2021/03/23 07:24:32;;;;;;;14.18;5.20;;;;;;;;;;5108818;28;20415;-80
2021/03/23 07:27:03;;;;;;;12.95;4.68;;;;;;;;;;5108939;28;20047;-80
2021/03/23 07:29:41;;;;;;;13.63;5.80;;;;;;;;;;5110460;28;20040;-81
2021/03/23 07:32:28;;;;;;;24.05;5.93;;;;;;;;;;5109190;28;20273;-81
2021/03/23 07:35:28;;;;;;;12.57;6.05;;;;;;;;;;5109111;28;20051;-79
2021/03/23 07:38:03;;;;;;;19.02;6.25;;;;;;;;;;5110884;28;20079;-80
2021/03/23 07:40:33;;;;;;;14.73;6.22;;;;;;;;;;5120048;28;20119;-80
2021/03/23 07:43:06;;;;;;;11.75;5.78;;;;;;;;;;5124181;28;20051;-80
2021/03/23 07:46:04;;;;;;;17.48;6.47;;;;;;;;;;5122922;28;20069;-80
2021/03/23 07:48:42;;;;;;;16.85;7.43;;;;;;;;;;5115055;28;20134;-80
2021/03/23 07:51:18;;;;;;;14.50;7.25;;;;;;;;;;5117305;28;20116;-80
2021/03/23 07:53:51;;;;;;;20.15;7.95;;;;;;;;;;5126221;28;20107;-80
2021/03/23 07:56:29;;;;;;;21.60;7.72;;;;;;;;;;5124407;28;20351;-80
2021/03/23 07:59:07;;;;;;;17.42;7.65;;;;;;;;;;5113492;28;20256;-79
2021/03/23 08:01:43;;;;;;;19.50;8.15;;;;;;;;;;5112815;28;20352;-80
2021/03/23 08:04:14;;;;;;;18.95;7.70;;;;;;;;;;5114328;27;20059;-80
2021/03/23 08:06:56;;;;;;;18.45;8.50;;;;;;;;;;5114601;27;20040;-81
2021/03/23 08:09:40;;;;;;;18.98;9.15;;;;;;;;;;5109504;28;20051;-79
2021/03/23 08:12:28;;;;;;;23.67;10.30;;;;;;;;;;5109515;28;20282;-79
2021/03/23 08:15:13;;;;;;;20.23;11.07;;;;;;;;;;5112395;28;20051;-81
2021/03/23 08:17:55;;;;;;;20.30;9.35;;;;;;;;;;5123709;27;20043;-79
2021/03/23 08:20:42;;;;;;;22.65;10.98;;;;;;;;;;5123782;27;20070;-81
2021/03/23 08:23:09;;;;;;;29.63;10.93;;;;;;;;;;5112117;28;20411;-81
2021/03/23 08:25:36;;;;;;;21.52;10.32;;;;;;;;;;5111747;28;20624;-81
2021/03/23 08:28:18;;;;;;;27.00;10.55;;;;;;;;;;5112856;28;20043;-81
2021/03/23 08:30:53;;;;;;;25.25;12.27;;;;;;;;;;5112521;28;20050;-80
2021/03/23 08:33:26;;;;;;;20.67;11.55;;;;;;;;;;5112246;28;20051;-80
2021/03/23 08:35:58;;;;;;;25.75;13.13;;;;;;;;;;5111325;28;20061;-79
2021/03/23 08:38:27;;;;;;;29.50;12.57;;;;;;;;;;5098440;28;20059;-80
2021/03/23 08:41:23;;;;;;;20.58;11.70;;;;;;;;;;5102488;28;20058;-80
2021/03/23 08:43:53;;;;;;;23.52;12.02;;;;;;;;;;5075587;28;20048;-80
2021/03/23 08:46:21;;;;;;;26.23;11.60;;;;;;;;;;5100844;28;20056;-80
2021/03/23 08:48:59;;;;;;;23.60;11.70;;;;;;;;;;5098564;28;20068;-80
2021/03/23 08:51:33;;;;;;;27.05;12.27;;;;;;;;;;5099188;28;20299;-80
2021/03/23 08:54:03;;;;;;;25.90;11.85;;;;;;;;;;5095616;28;20058;-80
2021/03/23 08:56:41;;;;;;;23.13;12.15;;;;;;;;;;5095547;28;20154;-79
2021/03/23 08:59:29;;;;;;;22.02;10.75;;;;;;;;;;5103821;28;20113;-80
2021/03/23 09:01:55;;;;;;;24.13;11.65;;;;;;;;;;5106858;28;20119;-81
2021/03/23 09:04:22;;;;;;;24.45;11.80;;;;;;;;;;5101655;28;20090;-81
2021/03/23 09:06:55;;;;;;;27.80;11.30;;;;;;;;;;5097789;28;20075;-80
2021/03/23 09:09:27;;;;;;;19.80;11.32;;;;;;;;;;5109877;28;20090;-80
2021/03/23 09:12:20;;;;;;;20.25;10.50;;;;;;;;;;5107744;28;20036;-80
2021/03/23 09:15:21;;;;;;;24.55;11.30;;;;;;;;;;5111152;28;20064;-80
2021/03/23 09:18:05;;;;;;;20.55;10.23;;;;;;;;;;5112925;28;20055;-80
2021/03/23 09:20:35;;;;;;;22.08;10.63;;;;;;;;;;5116264;28;20051;-80
2021/03/23 09:23:20;;;;;;;20.13;9.98;;;;;;;;;;5100456;27;20090;-80
2021/03/23 09:25:51;;;;;;;18.95;9.77;;;;;;;;;;5094238;28;20091;-81
2021/03/23 09:28:33;;;;;;;20.33;10.13;;;;;;;;;;5094951;28;20077;-80
2021/03/23 09:31:15;;;;;;;24.92;12.00;;;;;;;;;;5093751;28;20287;-81
2021/03/23 09:33:50;;;;;;;23.63;12.00;;;;;;;;;;5094836;28;20052;-83
2021/03/23 09:36:23;;;;;;;21.60;11.45;;;;;;;;;;5094151;28;20055;-80
2021/03/23 09:38:51;;;;;;;27.50;12.85;;;;;;;;;;5094814;28;20056;-80
2021/03/23 09:41:20;;;;;;;25.83;11.52;;;;;;;;;;5094198;28;20173;-81
2021/03/23 09:43:47;;;;;;;22.90;12.50;;;;;;;;;;5093875;28;20147;-79
2021/03/23 09:46:22;;;;;;;21.10;12.82;;;;;;;;;;5092944;28;20040;-80
2021/03/23 09:48:57;;;;;;;20.48;11.93;;;;;;;;;;5092103;28;20184;-80
2021/03/23 09:51:34;;;;;;;20.70;12.88;;;;;;;;;;5091192;28;20048;-80
2021/03/23 09:54:01;;;;;;;26.90;12.57;;;;;;;;;;5093654;28;20374;-80
2021/03/23 09:56:38;;;;;;;24.85;11.98;;;;;;;;;;5092414;28;20227;-80
2021/03/23 09:59:24;;;;;;;24.58;13.75;;;;;;;;;;5091525;28;20048;-80
2021/03/23 10:01:59;;;;;;;25.87;13.43;;;;;;;;;;5090242;28;20055;-80
2021/03/23 10:04:30;;;;;;;21.15;12.45;;;;;;;;;;5091744;28;20515;-80
2021/03/23 10:06:59;;;;;;;29.88;14.55;;;;;;;;;;5091023;28;20048;-80
2021/03/23 10:09:28;;;;;;;27.40;15.52;;;;;;;;;;5090747;28;20237;-79
2021/03/23 10:11:54;;;;;;;27.40;14.45;;;;;;;;;;5103303;27;20040;-79
2021/03/23 10:14:31;;;;;;;32.85;17.08;;;;;;;;;;5112097;28;20241;-80
2021/03/23 10:17:08;;;;;;;31.98;17.13;;;;;;;;;;5112137;28;20050;-80
2021/03/23 10:19:47;;;;;;;32.17;17.25;;;;;;;;;;5115551;28;20150;-80
2021/03/23 10:22:15;;;;;;;31.83;17.02;;;;;;;;;;5117820;27;20233;-80
2021/03/23 10:24:44;;;;;;;28.63;16.10;;;;;;;;;;5115182;28;20058;-80
2021/03/23 10:27:15;;;;;;;30.20;16.20;;;;;;;;;;5114582;28;20063;-80
2021/03/23 10:29:56;;;;;;;34.13;17.83;;;;;;;;;;5113330;27;20060;-79
2021/03/23 10:32:42;;;;;;;27.60;15.98;;;;;;;;;;5093261;28;20567;-79
2021/03/23 10:35:16;;;;;;;32.28;17.35;;;;;;;;;;5098875;28;20143;-80
2021/03/23 10:37:45;;;;;;;29.52;15.88;;;;;;;;;;5118325;28;20050;-80
2021/03/23 10:40:32;;;;;;;31.77;16.55;;;;;;;;;;5116666;28;20051;-80
2021/03/23 10:42:59;;;;;;;31.15;16.63;;;;;;;;;;5120705;28;20243;-80
2021/03/23 10:45:50;;;;;;;31.98;16.75;;;;;;;;;;5124070;28;20129;-80
2021/03/23 10:48:33;;;;;;;29.02;16.20;;;;;;;;;;5124753;28;20081;-82
2021/03/23 10:51:09;;;;;;;34.30;18.00;;;;;;;;;;5113700;27;20437;-81
2021/03/23 10:53:35;;;;;;;25.90;16.30;;;;;;;;;;5112530;28;20079;-80
2021/03/23 10:56:01;;;;;;;31.67;17.17;;;;;;;;;;5112080;28;20056;-80
2021/03/23 10:58:39;;;;;;;28.10;17.00;;;;;;;;;;5113600;28;20136;-81
2021/03/23 11:01:14;;;;;;;35.33;17.90;;;;;;;;;;5111458;28;20123;-81
2021/03/23 11:03:44;;;;;;;31.70;17.60;;;;;;;;;;5113248;27;20089;-80
2021/03/23 11:06:26;;;;;;;35.28;16.83;;;;;;;;;;5105928;28;20293;-80
2021/03/23 11:08:56;;;;;;;29.27;16.52;;;;;;;;;;5109349;27;20047;-81
2021/03/23 11:11:22;;;;;;;35.03;17.30;;;;;;;;;;5104902;28;20138;-80
2021/03/23 11:13:50;;;;;;;29.27;17.67;;;;;;;;;;5111597;27;20294;-81
2021/03/23 11:16:21;;;;;;;30.30;18.15;;;;;;;;;;5109957;28;20392;-80
2021/03/23 11:18:56;;;;;;;31.80;18.25;;;;;;;;;;5109419;28;20048;-79
2021/03/23 11:21:23;;;;;;;36.78;19.17;;;;;;;;;;5110910;28;20043;-80
2021/03/23 11:23:54;;;;;;;29.65;18.45;;;;;;;;;;5110261;28;20043;-79
2021/03/23 11:26:25;;;;;;;33.28;17.83;;;;;;;;;;5109451;28;20048;-80
2021/03/23 11:28:53;;;;;;;38.03;18.00;;;;;;;;;;5108451;28;20047;-80
2021/03/23 11:31:21;;;;;;;27.30;16.40;;;;;;;;;;5110542;28;20075;-80
2021/03/23 11:33:53;;;;;;;31.48;18.33;;;;;;;;;;5120294;27;20411;-80
2021/03/23 11:36:20;;;;;;;38.55;18.42;;;;;;;;;;5115135;27;20058;-80
2021/03/23 11:38:48;;;;;;;32.33;16.90;;;;;;;;;;5110326;27;20055;-80
2021/03/23 11:41:25;;;;;;;32.33;17.48;;;;;;;;;;5111818;27;20235;-80
2021/03/23 11:43:58;;;;;;;28.33;17.85;;;;;;;;;;5108934;28;20097;-80
2021/03/23 11:46:26;;;;;;;31.25;17.42;;;;;;;;;;5111331;27;20100;-80
2021/03/23 11:48:56;;;;;;;32.08;18.60;;;;;;;;;;5111418;27;20046;-80
2021/03/23 11:51:26;;;;;;;31.30;17.05;;;;;;;;;;5109071;28;20275;-81
2021/03/23 11:53:55;;;;;;;33.63;18.38;;;;;;;;;;5098766;28;20425;-79
2021/03/23 11:56:33;;;;;;;31.17;18.15;;;;;;;;;;5095003;28;20528;-79
2021/03/23 11:59:04;;;;;;;29.67;16.95;;;;;;;;;;5098054;28;20466;-80
2021/03/23 12:01:30;;;;;;;35.88;19.33;;;;;;;;;;5092793;28;20072;-80
2021/03/23 12:04:12;;;;;;;30.63;17.88;;;;;;;;;;5101176;28;20067;-81
2021/03/23 12:06:46;;;;;;;35.45;18.77;;;;;;;;;;5103525;28;20226;-80
2021/03/23 12:09:39;;;;;;;31.05;18.45;;;;;;;;;;5106169;28;20197;-81
2021/03/23 12:12:37;;;;;;;29.95;17.55;;;;;;;;;;5091673;28;20062;-81
2021/03/23 12:15:21;;;;;;;32.60;17.83;;;;;;;;;;5105034;28;20112;-80
2021/03/23 12:17:51;;;;;;;29.58;17.67;;;;;;;;;;5110235;28;20068;-81
2021/03/23 12:20:22;;;;;;;36.83;19.83;;;;;;;;;;5128853;28;20042;-79
2021/03/23 12:22:49;;;;;;;38.75;19.67;;;;;;;;;;5126351;28;20039;-79
2021/03/23 12:25:22;;;;;;;27.17;16.35;;;;;;;;;;5124057;28;20046;-80
2021/03/23 12:27:51;;;;;;;34.20;20.35;;;;;;;;;;5120180;28;20036;-80
2021/03/23 12:30:25;;;;;;;35.35;18.63;;;;;;;;;;5106819;28;20162;-80
2021/03/23 12:32:56;;;;;;;36.28;18.30;;;;;;;;;;5120916;28;20079;-80
2021/03/23 12:35:25;;;;;;;29.73;18.20;;;;;;;;;;5119938;28;20177;-80
2021/03/23 12:37:59;;;;;;;41.30;19.17;;;;;;;;;;5113531;28;20043;-80
2021/03/23 12:40:29;;;;;;;32.78;18.98;;;;;;;;;;5093890;28;20499;-80
2021/03/23 12:43:16;;;;;;;33.53;19.05;;;;;;;;;;5096164;28;20052;-81
2021/03/23 12:45:42;;;;;;;33.00;18.58;;;;;;;;;;5102273;28;20145;-81
2021/03/23 12:48:09;;;;;;;28.33;16.85;;;;;;;;;;5102197;28;20048;-80
2021/03/23 12:50:47;;;;;;;31.83;17.92;;;;;;;;;;5098475;28;20055;-80
2021/03/23 12:53:18;;;;;;;36.70;18.92;;;;;;;;;;5097719;28;20052;-79
2021/03/23 12:55:48;;;;;;;33.17;17.50;;;;;;;;;;5102881;28;20064;-80
2021/03/23 12:58:18;;;;;;;35.17;18.58;;;;;;;;;;5107404;28;20126;-80
2021/03/23 13:00:48;;;;;;;40.70;19.52;;;;;;;;;;5113812;28;20051;-80
2021/03/23 13:03:20;;;;;;;32.03;18.13;;;;;;;;;;5115427;27;20480;-80
2021/03/23 13:05:52;;;;;;;30.50;18.13;;;;;;;;;;5133198;27;20062;-79
2021/03/23 13:08:31;;;;;;;33.10;19.23;;;;;;;;;;5133295;27;20043;-81
2021/03/23 13:11:00;;;;;;;27.00;17.17;;;;;;;;;;5131166;27;20433;-80
2021/03/23 13:13:29;;;;;;;30.73;17.88;;;;;;;;;;5131464;27;20047;-81
2021/03/23 13:15:57;;;;;;;32.10;18.90;;;;;;;;;;5132667;27;20051;-81
2021/03/23 13:18:24;;;;;;;32.88;19.02;;;;;;;;;;5132125;27;20096;-80
2021/03/23 13:20:54;;;;;;;31.02;17.92;;;;;;;;;;5135903;27;20055;-79
2021/03/23 13:23:35;;;;;;;28.98;17.25;;;;;;;;;;5112465;27;20048;-80
2021/03/23 13:26:03;;;;;;;32.33;18.17;;;;;;;;;;5144478;27;20057;-80
2021/03/23 13:28:49;;;;;;;30.60;18.45;;;;;;;;;;5120808;28;20044;-78
2021/03/23 13:31:19;;;;;;;31.02;18.85;;;;;;;;;;5107995;27;20077;-81
2021/03/23 13:33:47;;;;;;;30.13;18.00;;;;;;;;;;5105833;28;20218;-81
2021/03/23 13:36:40;;;;;;;30.10;17.75;;;;;;;;;;5094083;28;20408;-80
2021/03/23 13:39:36;;;;;;;26.45;17.67;;;;;;;;;;5083976;28;20105;-80
2021/03/23 13:42:09;;;;;;;34.05;18.65;;;;;;;;;;5097363;28;20083;-80
2021/03/23 13:44:43;;;;;;;30.17;17.83;;;;;;;;;;5106590;28;20047;-80
2021/03/23 13:47:20;;;;;;;29.05;17.63;;;;;;;;;;5108560;28;20408;-80
2021/03/23 13:49:47;;;;;;;29.13;17.33;;;;;;;;;;5112349;27;20147;-80
2021/03/23 13:52:19;;;;;;;33.08;19.75;;;;;;;;;;5112334;28;20242;-80
2021/03/23 13:54:49;;;;;;;29.98;17.70;;;;;;;;;;5117209;27;20207;-79
2021/03/23 13:57:16;;;;;;;27.05;17.30;;;;;;;;;;5116691;28;20051;-79
2021/03/23 13:59:42;;;;;;;33.65;18.55;;;;;;;;;;5107258;28;20581;-80
2021/03/23 14:02:12;;;;;;;28.88;18.13;;;;;;;;;;5111050;28;20087;-80
2021/03/23 14:04:38;;;;;;;27.88;17.98;;;;;;;;;;5106542;27;20492;-80
2021/03/23 14:07:09;;;;;;;28.77;17.50;;;;;;;;;;5091759;28;20071;-80
2021/03/23 14:09:41;;;;;;;30.38;18.27;;;;;;;;;;5089606;28;20121;-80
2021/03/23 14:12:12;;;;;;;33.58;17.58;;;;;;;;;;5087673;28;20052;-80
2021/03/23 14:14:38;;;;;;;34.35;17.00;;;;;;;;;;5094857;28;20108;-81
2021/03/23 14:17:21;;;;;;;27.75;17.30;;;;;;;;;;5102968;27;20039;-81
2021/03/23 14:19:53;;;;;;;;;;;;;;;;;;5109919;28;20284;-81
2021/03/23 14:22:30;;;;;;;30.10;17.38;;;;;;;;;;5099929;28;20004;-81
2021/03/23 14:25:05;;;;;;;27.15;16.60;;;;;;;;;;5098394;28;20126;-79
2021/03/23 14:27:31;;;;;;;29.75;17.73;;;;;;;;;;5109782;27;20059;-80
2021/03/23 14:30:00;;;;;;;31.85;18.20;;;;;;;;;;5112553;28;20051;-79
2021/03/23 14:32:26;;;;;;;40.58;18.80;;;;;;;;;;5098844;28;20111;-80
2021/03/23 14:34:53;;;;;;;27.83;17.15;;;;;;;;;;5093473;28;20060;-80
2021/03/23 14:37:23;;;;;;;39.38;18.75;;;;;;;;;;5110250;28;20067;-80
2021/03/23 14:39:56;;;;;;;29.95;17.85;;;;;;;;;;5126072;28;20039;-81
2021/03/23 14:42:25;;;;;;;28.73;17.63;;;;;;;;;;5126227;27;20039;-79
2021/03/23 14:44:54;;;;;;;29.58;18.75;;;;;;;;;;5126607;28;20076;-80
2021/03/23 14:47:25;;;;;;;30.83;19.42;;;;;;;;;;5115573;28;20048;-81
2021/03/23 14:49:52;;;;;;;29.08;17.73;;;;;;;;;;5091422;28;20224;-80
2021/03/23 14:52:27;;;;;;;30.27;17.85;;;;;;;;;;5102490;28;20040;-78
2021/03/23 14:55:03;;;;;;;34.30;18.55;;;;;;;;;;5099216;28;20047;-80
2021/03/23 14:57:30;;;;;;;36.35;19.48;;;;;;;;;;5108096;28;20048;-79